Arlington, Massachusetts
Current Conditions -  °F | °C
As of 3:09 PM on Wednesday 26 Nov 2014 (Local Time) from KBED Reporting Station
Light Snow Light Snow  
Wind Chill: 23°   Ceiling: 600
Heat Index: 32°   Visibility: 0.75mi
Dew Point: 31°   Wind: 13mph
Humidity: 96%   Direction: 20°NNE
Pressure: 30.03"   Gusts: NA
Location:  42.42°N, 71.16°W
Report Text: KBED 262009Z 02011KT 3/4SM R11/5000V6000FT -SN BR OVC006 00/M01 A3003 RMK AO2 P0002 T00001006
Loading
Personal Weather Stations






























Interactive Weather Map New forecast layout! Learn more

10-Day Weather Forecast

Advertisements
Track Severe Weather on mobile